createdAt,value
2022-10-22T00:02:36.076Z,50.34
2022-10-22T00:07:33.182Z,49.36
2022-10-22T00:12:29.752Z,48.88
2022-10-22T00:17:28.355Z,49.10
2022-10-22T00:22:25.074Z,49.82
2022-10-22T00:27:21.841Z,50.68
2022-10-22T00:32:18.599Z,50.37
2022-10-22T00:37:17.009Z,51.04
2022-10-22T00:42:16.577Z,51.45
2022-10-22T00:47:13.234Z,51.72
2022-10-22T00:52:09.884Z,51.38
2022-10-22T00:57:07.214Z,51.09
2022-10-22T01:02:04.033Z,50.60
2022-10-22T01:07:00.778Z,50.12
2022-10-22T01:12:01.881Z,50.26
2022-10-22T01:17:01.142Z,49.99
2022-10-22T01:21:59.532Z,50.84
2022-10-22T01:27:10.833Z,53.31
2022-10-22T01:32:10.396Z,54.16
2022-10-22T01:37:08.104Z,55.15
2022-10-22T01:42:04.750Z,56.09
2022-10-22T01:47:06.826Z,56.82
2022-10-22T01:52:10.085Z,55.16
2022-10-22T01:57:11.613Z,53.73
2022-10-22T02:02:13.277Z,52.74
2022-10-22T02:07:12.785Z,52.95
2022-10-22T02:12:10.056Z,53.83
2022-10-22T02:17:09.022Z,53.14
2022-10-22T02:22:06.905Z,53.34
2022-10-22T02:27:07.800Z,53.33
2022-10-22T02:32:06.440Z,53.02
2022-10-22T02:37:04.339Z,53.03
2022-10-22T02:42:01.610Z,53.48
2022-10-22T02:46:59.125Z,53.89
2022-10-22T02:51:55.972Z,54.45
2022-10-22T02:56:52.515Z,54.66
2022-10-22T03:01:49.079Z,57.00
2022-10-22T03:06:48.232Z,58.61
2022-10-22T03:11:44.822Z,59.39
2022-10-22T03:16:41.411Z,61.07
2022-10-22T03:21:41.231Z,62.08
2022-10-22T03:26:39.789Z,61.14
2022-10-22T03:31:36.520Z,60.45
2022-10-22T03:36:33.432Z,62.33
2022-10-22T03:41:30.008Z,63.99
2022-10-22T03:46:27.273Z,62.54
2022-10-22T03:51:26.004Z,63.81
2022-10-22T03:56:22.682Z,63.11
2022-10-22T04:01:21.502Z,64.12
2022-10-22T04:06:18.768Z,63.15
2022-10-22T04:11:16.026Z,62.99
2022-10-22T04:16:13.505Z,64.42
2022-10-22T04:21:13.429Z,63.72
2022-10-22T04:26:11.896Z,63.39
2022-10-22T04:31:11.068Z,63.45
2022-10-22T04:36:08.616Z,63.38
2022-10-22T04:41:11.894Z,62.33
2022-10-22T04:46:09.606Z,61.34
2022-10-22T04:51:06.388Z,59.58
2022-10-22T04:56:10.109Z,59.94
2022-10-22T05:01:12.757Z,60.04
2022-10-22T05:06:10.031Z,59.63
2022-10-22T05:11:14.559Z,58.84
2022-10-22T05:16:12.387Z,58.46
2022-10-22T05:21:09.654Z,58.29
2022-10-22T05:26:09.416Z,58.32
2022-10-22T05:31:08.911Z,58.54
2022-10-22T05:36:08.678Z,59.80
2022-10-22T05:41:07.038Z,61.85
2022-10-22T05:46:04.473Z,60.67
2022-10-22T05:51:04.029Z,60.30
2022-10-22T05:56:01.900Z,59.52
2022-10-22T06:01:02.555Z,57.60
2022-10-22T06:06:01.299Z,57.49
2022-10-22T06:11:00.160Z,59.53
2022-10-22T06:15:57.629Z,59.60
2022-10-22T06:20:56.180Z,58.82
2022-10-22T06:25:56.441Z,56.98
2022-10-22T06:30:53.329Z,57.38
2022-10-22T06:35:50.612Z,57.01
2022-10-22T06:40:47.228Z,58.16
2022-10-22T06:45:43.796Z,57.34
2022-10-22T06:50:43.679Z,57.44
2022-10-22T06:55:40.926Z,55.78
2022-10-22T07:00:37.563Z,57.13
2022-10-22T07:05:34.889Z,57.39
2022-10-22T07:10:31.670Z,59.43
2022-10-22T07:15:29.022Z,56.59
2022-10-22T07:20:25.910Z,57.08
2022-10-22T07:25:22.596Z,56.02
2022-10-22T07:30:19.277Z,56.36
2022-10-22T07:35:16.789Z,55.56
2022-10-22T07:40:18.644Z,56.73
2022-10-22T07:45:15.461Z,58.59
2022-10-22T07:50:12.195Z,59.48
2022-10-22T07:55:12.964Z,58.57
2022-10-22T08:00:10.507Z,59.12
2022-10-22T08:05:09.892Z,58.69
2022-10-22T08:10:07.169Z,59.02
2022-10-22T08:15:04.895Z,59.80
2022-10-22T08:20:01.468Z,59.78
2022-10-22T08:24:59.783Z,58.51
2022-10-22T08:29:59.568Z,58.15
2022-10-22T08:34:56.790Z,56.67
2022-10-22T08:39:53.367Z,56.73
2022-10-22T08:44:58.656Z,56.45
2022-10-22T08:56:29.997Z,54.45
2022-10-22T09:01:31.709Z,54.62
2022-10-22T09:06:29.487Z,54.87
2022-10-22T09:11:27.666Z,54.98
2022-10-22T09:16:30.675Z,55.25
2022-10-22T09:21:33.462Z,55.03
2022-10-22T09:26:31.702Z,54.14
2022-10-22T09:31:30.511Z,53.84
2022-10-22T09:36:28.868Z,54.26
2022-10-22T09:41:29.133Z,53.85
2022-10-22T09:46:28.512Z,53.11
2022-10-22T09:51:36.261Z,53.21
2022-10-22T09:56:34.864Z,53.08
2022-10-22T10:01:32.620Z,51.97
2022-10-22T10:06:35.503Z,52.52
2022-10-22T10:11:37.414Z,51.39
2022-10-22T10:16:41.272Z,50.74
2022-10-22T10:21:45.564Z,50.38
2022-10-22T10:26:47.139Z,49.51
2022-10-22T10:32:02.945Z,48.34
2022-10-22T10:37:04.732Z,48.36
2022-10-22T10:42:07.426Z,48.12
2022-10-22T10:47:12.695Z,47.88
2022-10-22T10:52:18.910Z,47.47
2022-10-22T10:57:21.990Z,46.86
2022-10-22T11:02:39.002Z,46.38
2022-10-22T11:07:40.004Z,46.71
2022-10-22T11:12:39.636Z,45.84
2022-10-22T11:17:39.507Z,45.73
2022-10-22T11:22:50.539Z,44.55
2022-10-22T11:28:07.755Z,45.16
2022-10-22T11:33:07.656Z,44.85
2022-10-22T11:38:11.119Z,43.99
2022-10-22T11:43:09.020Z,44.77
2022-10-22T11:48:15.924Z,44.65
2022-10-22T11:53:18.722Z,43.91
2022-10-22T11:58:30.171Z,44.29
2022-10-22T12:03:39.860Z,43.66
2022-10-22T12:08:42.794Z,43.85
2022-10-22T12:13:57.994Z,43.61
2022-10-22T12:18:58.328Z,43.20
2022-10-22T12:23:56.725Z,43.70
2022-10-22T12:28:58.402Z,42.73
2022-10-22T12:33:59.575Z,43.15
2022-10-22T12:39:00.521Z,43.52
2022-10-22T12:44:01.613Z,43.67
2022-10-22T12:49:02.891Z,43.23
2022-10-22T12:54:03.858Z,43.27
2022-10-22T12:59:05.969Z,43.38
2022-10-22T13:04:07.646Z,43.17
2022-10-22T13:09:13.567Z,42.82
2022-10-22T13:14:19.390Z,41.93
2022-10-22T13:19:33.068Z,42.31
2022-10-22T13:24:30.647Z,42.56
2022-10-22T13:29:27.334Z,42.50
2022-10-22T13:34:25.174Z,42.93
2022-10-22T13:39:22.681Z,42.70
2022-10-22T13:44:20.332Z,42.77
2022-10-22T13:49:18.452Z,42.77
2022-10-22T13:54:19.201Z,42.68
2022-10-22T13:59:18.419Z,42.86
2022-10-22T14:04:18.911Z,43.45
2022-10-22T14:09:16.060Z,43.42
2022-10-22T14:14:16.514Z,43.10
2022-10-22T14:19:31.503Z,43.48
2022-10-22T14:24:29.076Z,44.12
2022-10-22T14:29:26.240Z,43.76
2022-10-22T14:34:22.970Z,44.28
2022-10-22T14:39:21.031Z,44.07
2022-10-22T14:44:18.628Z,44.17
2022-10-22T14:49:18.562Z,44.63
2022-10-22T14:54:16.442Z,44.35
2022-10-22T14:59:19.674Z,45.23
2022-10-22T15:04:17.180Z,44.77
2022-10-22T15:09:14.080Z,44.63
2022-10-22T15:14:10.768Z,45.47
2022-10-22T15:19:07.371Z,44.85
2022-10-22T15:24:30.918Z,46.89
2022-10-22T15:29:32.387Z,46.73
2022-10-22T15:34:30.225Z,47.96
2022-10-22T15:40:01.965Z,49.21
2022-10-22T15:45:01.737Z,49.56
2022-10-22T15:49:58.434Z,48.42
2022-10-22T15:54:58.616Z,47.81
2022-10-22T15:59:59.277Z,48.02
2022-10-22T16:05:05.831Z,47.01
2022-10-22T16:10:02.977Z,46.15
2022-10-22T16:15:00.725Z,45.86
2022-10-22T16:19:57.547Z,45.80
2022-10-22T16:27:03.821Z,46.81
2022-10-22T16:31:01.132Z,46.77
2022-10-22T16:35:58.484Z,45.18
2022-10-22T16:41:08.346Z,46.36
2022-10-22T16:46:06.322Z,46.00
2022-10-22T16:51:05.249Z,45.27
2022-10-22T16:56:02.338Z,45.01
2022-10-22T17:00:59.047Z,44.94
2022-10-22T17:05:59.091Z,45.52
2022-10-22T17:10:55.856Z,45.33
2022-10-22T17:15:52.621Z,46.26
2022-10-22T17:20:50.702Z,46.84
2022-10-22T17:25:48.086Z,48.04
2022-10-22T17:30:44.916Z,47.11
2022-10-22T17:35:42.522Z,49.37
2022-10-22T17:40:39.260Z,54.57
2022-10-22T17:45:36.739Z,52.43
2022-10-22T17:50:35.271Z,51.24
2022-10-22T17:55:34.349Z,51.03
2022-10-22T18:00:32.854Z,49.48
2022-10-22T18:05:30.224Z,49.53
2022-10-22T18:10:28.650Z,49.74
2022-10-22T18:15:25.556Z,50.43
2022-10-22T18:20:22.220Z,51.54
2022-10-22T18:25:20.273Z,51.98
2022-10-22T18:30:17.124Z,50.73
2022-10-22T18:35:14.094Z,50.15
2022-10-22T18:40:14.482Z,49.74
2022-10-22T18:45:37.288Z,50.44
2022-10-22T18:50:34.797Z,50.54
2022-10-22T18:55:31.996Z,51.52
2022-10-22T19:00:29.244Z,52.58
2022-10-22T19:05:26.001Z,53.61
2022-10-22T19:10:23.497Z,53.15
2022-10-22T19:15:20.159Z,53.07
2022-10-22T19:20:17.027Z,54.10
2022-10-22T19:25:16.342Z,54.78
2022-10-22T19:30:14.122Z,54.96
2022-10-22T19:35:10.670Z,55.29
2022-10-22T19:40:07.945Z,54.94
2022-10-22T19:45:05.431Z,54.66
2022-10-22T19:50:02.655Z,54.54
2022-10-22T19:54:59.191Z,53.71
2022-10-22T19:59:55.784Z,52.08
2022-10-22T20:04:52.870Z,51.48
2022-10-22T20:09:53.209Z,52.32
2022-10-22T20:14:49.917Z,51.94
2022-10-22T20:19:46.657Z,51.04
2022-10-22T20:24:43.363Z,50.83
2022-10-22T20:29:40.740Z,51.32
2022-10-22T20:34:37.571Z,51.49
2022-10-22T20:39:34.494Z,51.50
2022-10-22T20:44:31.156Z,50.62
2022-10-22T20:49:28.506Z,50.83
2022-10-22T20:54:25.143Z,50.44
2022-10-22T20:59:21.812Z,51.06
2022-10-22T21:04:19.618Z,50.14
2022-10-22T21:09:16.914Z,51.20
2022-10-22T21:14:14.368Z,52.08
2022-10-22T21:19:10.947Z,54.16
2022-10-22T21:24:08.084Z,52.85
2022-10-22T21:29:05.408Z,52.25
2022-10-22T21:34:01.993Z,52.55
2022-10-22T21:39:01.220Z,52.60
2022-10-22T21:43:57.885Z,53.01
2022-10-22T21:48:57.121Z,52.54
2022-10-22T21:53:54.207Z,52.36
2022-10-22T21:58:50.719Z,54.79
2022-10-22T22:03:48.856Z,59.09
2022-10-22T22:08:46.225Z,61.51
2022-10-22T22:13:42.885Z,60.35
2022-10-22T22:18:40.008Z,60.62
2022-10-22T22:23:40.726Z,60.74
2022-10-22T22:28:38.111Z,61.17
2022-10-22T22:33:34.757Z,60.33
2022-10-22T22:38:31.393Z,58.18
2022-10-22T22:43:27.998Z,57.25
2022-10-22T22:48:25.418Z,57.37
2022-10-22T22:53:22.171Z,56.34
2022-10-22T22:58:18.635Z,55.90
2022-10-22T23:03:15.153Z,54.94
2022-10-22T23:08:12.295Z,53.79
2022-10-22T23:13:08.967Z,53.93
2022-10-22T23:18:05.683Z,54.20
2022-10-22T23:23:05.455Z,52.56
2022-10-22T23:28:02.768Z,53.84
2022-10-22T23:32:59.282Z,54.19
2022-10-22T23:37:55.939Z,53.43
2022-10-22T23:42:53.680Z,53.25
2022-10-22T23:47:51.045Z,53.10
2022-10-22T23:52:48.196Z,53.38
2022-10-22T23:57:44.797Z,53.42
